Currently 61°F in De Luz, California, USA
61°F
61°F / 59°F
calm
0.00"
Sunday, June 16, 2019 8:24 AM PDT

De Luz, California Weather Summary
Last 36 Hours

Temperature Winds Hourly Humidity Dewpoint
Time Report Norm Report Norm Max Gusts Precip. Rpt. Norm Rpt. Norm Pressure
1,2Sun 08:24 AM  60.7°F  63°F  calm  calm  none  0.00"  94%  81%  59°F  57°F  28.59"
Sun 08:00 AM  60.4°F  62°F  calm  calm  none  0.00"  94%  84%  59°F  57°F  28.59"
Sun 07:00 AM  60.1°F  59°F  calm  calm  none  0.00"  95%  87%  59°F  55°F  28.57"
Sun 06:00 AM  59.8°F  58°F  calm  calm  2 mph  0.00"  96%  87%  59°F  54°F  28.56"
Sun 05:00 AM  59.5°F  58°F  calm  calm  none  0.00"  96%  87%  58°F  54°F  28.58"
Sun 04:00 AM  59.2°F  58°F  calm  calm  none  0.00"  95%  88%  58°F  54°F  28.58"
Sun 03:00 AM  59.2°F  58°F  calm  calm  none  0.00"  95%  87%  58°F  54°F  28.59"
3Sun 02:08 AM  59.0°F  59°F  calm  calm  none  ----  95%  87%  58°F  55°F  28.59"
Sun 02:00 AM  59.2°F  59°F  calm  calm  none  0.00"  95%  87%  58°F  55°F  28.59"
Sun 01:00 AM  59.2°F  59°F  calm  calm  none  0.00"  95%  87%  58°F  55°F  28.61"
Sun 12:00 AM  59.3°F  59°F  calm  calm  none  0.00"  94%  87%  58°F  55°F  28.60"
Sat 11:00 PM  59.5°F  59°F  calm  calm  none  0.00"  94%  87%  58°F  55°F  28.62"
Sat 10:00 PM  59.6°F  60°F  calm  calm  2 mph  0.00"  93%  86%  57°F  56°F  28.63"
Sat 09:00 PM  59.9°F  61°F  calm  1 mph  6 mph  0.00"  91%  82%  57°F  56°F  28.61"
Sat 08:00 PM  61.3°F  64°F  2 mph S  1 mph  6 mph  0.00"  86%  76%  57°F  56°F  28.61"
Sat 07:00 PM  65.5°F  68°F  calm  2 mph  10 mph  0.00"  77%  68%  58°F  57°F  28.60"
Sat 06:00 PM  67.9°F  71°F  2 mph S  2 mph  10 mph  0.00"  73%  61%  59°F  57°F  28.58"
Sat 05:00 PM  71.5°F  74°F  2 mph S  3 mph  13 mph  0.00"  66%  55%  59°F  56°F  28.59"
Sat 04:00 PM  72.7°F  76°F  4 mph S  3 mph  12 mph  0.00"  64%  51%  59°F  56°F  28.58"
Sat 03:00 PM  74.6°F  78°F  5 mph SW  3 mph  15 mph  0.00"  61%  49%  60°F  56°F  28.58"
Sat 02:00 PM  76.7°F  78°F  2 mph S  3 mph  13 mph  0.00"  56%  48%  59°F  57°F  28.62"
Sat 01:00 PM  75.3°F  78°F  1 mph S  3 mph  5 mph  0.00"  55%  49%  57°F  57°F  28.60"
Sat 12:00 PM  72.0°F  76°F  1 mph S  2 mph  6 mph  0.00"  64%  53%  59°F  57°F  28.63"
Sat 11:00 AM  66.3°F  73°F  calm  1 mph  2 mph  0.00"  79%  60%  59°F  57°F  28.64"
Sat 10:00 AM  60.4°F  69°F  calm  1 mph  none  0.00"  89%  69%  57°F  58°F  28.66"
Sat 09:00 AM  58.6°F  65°F  calm  calm  none  0.00"  93%  78%  57°F  58°F  28.66"
Sat 08:00 AM  57.5°F  61°F  calm  calm  none  0.00"  94%  85%  56°F  57°F  28.66"
Sat 07:00 AM  56.9°F  59°F  calm  calm  none  0.00"  94%  88%  55°F  55°F  28.65"
Sat 06:00 AM  56.6°F  58°F  calm  calm  2 mph  0.00"  94%  88%  55°F  54°F  28.63"
Sat 05:00 AM  56.5°F  58°F  calm  calm  3 mph  0.00"  95%  88%  55°F  54°F  28.62"
Sat 04:00 AM  56.3°F  58°F  calm  calm  none  0.00"  95%  89%  55°F  54°F  28.61"
Sat 03:00 AM  56.2°F  58°F  calm  calm  none  0.00"  95%  88%  55°F  55°F  28.61"
Sat 02:00 AM  56.0°F  58°F  calm  calm  none  0.00"  95%  88%  55°F  55°F  28.61"
Sat 01:00 AM  55.9°F  58°F  calm  calm  none  0.00"  94%  88%  54°F  55°F  28.62"
Sat 12:00 AM  55.3°F  59°F  calm  calm  none  0.00"  93%  88%  53°F  55°F  28.62"
Fri 11:00 PM  55.9°F  59°F  calm  calm  none  0.00"  91%  88%  53°F  55°F  28.64"
Fri 10:00 PM  56.9°F  60°F  calm  calm  none  0.00"  89%  87%  54°F  55°F  28.64"
Fri 09:00 PM  58.0°F  61°F  calm  1 mph  2 mph  0.00"  87%  84%  54°F  56°F  28.63"

  1. Current weather data. No green row appears if the current weather data is also the high or low for the current day.
  2. High temperature for the current day.
  3. Low temperature for the current day.

The De Luz, California weather pages are a service of WeatherCurrents. De Luz is located west of the Temecula Valley and north of Fallbrook, on the Santa Rosa Plateau, in southwestern Riverside County, California.
Copyright ©2019  WeatherCurrents. All rights reserved. - Submit questions and comments - Privacy Policy

This page automatically refreshes every 10 minutes.